sensor_id;sensor_type;location;lat;lon;timestamp;temperature;humidity
13686;DHT22;6915;48.296;8.874;2022-12-11T00:01:16;-1.90;99.90
13686;DHT22;6915;48.296;8.874;2022-12-11T00:03:45;-1.80;99.90
13686;DHT22;6915;48.296;8.874;2022-12-11T00:06:16;-2.00;99.90
13686;DHT22;6915;48.296;8.874;2022-12-11T00:08:45;-1.90;99.90
13686;DHT22;6915;48.296;8.874;2022-12-11T00:11:15;-2.00;99.90
13686;DHT22;6915;48.296;8.874;2022-12-11T00:13:45;-2.10;99.90
13686;DHT22;6915;48.296;8.874;2022-12-11T00:16:14;-2.10;99.90
13686;DHT22;6915;48.296;8.874;2022-12-11T00:18:43;-2.10;99.90
13686;DHT22;6915;48.296;8.874;2022-12-11T00:21:13;-2.10;99.90
13686;DHT22;6915;48.296;8.874;2022-12-11T00:23:42;-2.20;99.90
13686;DHT22;6915;48.296;8.874;2022-12-11T00:26:13;-2.20;99.90
13686;DHT22;6915;48.296;8.874;2022-12-11T00:28:42;-2.20;99.90
13686;DHT22;6915;48.296;8.874;2022-12-11T00:31:14;-2.30;99.90
13686;DHT22;6915;48.296;8.874;2022-12-11T00:33:44;-2.40;99.90
13686;DHT22;6915;48.296;8.874;2022-12-11T00:36:16;-2.40;99.90
13686;DHT22;6915;48.296;8.874;2022-12-11T00:38:45;-2.50;99.90
13686;DHT22;6915;48.296;8.874;2022-12-11T00:41:15;-2.70;99.90
13686;DHT22;6915;48.296;8.874;2022-12-11T00:43:45;-2.80;99.90
13686;DHT22;6915;48.296;8.874;2022-12-11T00:46:14;-2.80;99.90
13686;DHT22;6915;48.296;8.874;2022-12-11T00:48:43;-3.00;99.90
13686;DHT22;6915;48.296;8.874;2022-12-11T00:51:12;-3.10;99.90
13686;DHT22;6915;48.296;8.874;2022-12-11T00:53:41;-3.20;99.90
13686;DHT22;6915;48.296;8.874;2022-12-11T00:56:09;-3.20;99.90
13686;DHT22;6915;48.296;8.874;2022-12-11T00:58:38;-3.50;99.90
13686;DHT22;6915;48.296;8.874;2022-12-11T01:01:10;-3.50;99.90
13686;DHT22;6915;48.296;8.874;2022-12-11T01:03:39;-3.70;99.90
13686;DHT22;6915;48.296;8.874;2022-12-11T01:06:09;-3.80;99.90
13686;DHT22;6915;48.296;8.874;2022-12-11T01:08:40;-4.00;99.90
13686;DHT22;6915;48.296;8.874;2022-12-11T01:11:11;-4.00;99.90
13686;DHT22;6915;48.296;8.874;2022-12-11T01:13:41;-4.20;99.90
13686;DHT22;6915;48.296;8.874;2022-12-11T01:16:14;-4.10;99.90
13686;DHT22;6915;48.296;8.874;2022-12-11T01:18:43;-4.40;99.90
13686;DHT22;6915;48.296;8.874;2022-12-11T01:21:13;-4.40;99.90
13686;DHT22;6915;48.296;8.874;2022-12-11T01:23:42;-4.30;99.90
13686;DHT22;6915;48.296;8.874;2022-12-11T01:26:13;-4.50;99.90
13686;DHT22;6915;48.296;8.874;2022-12-11T01:28:43;-4.50;99.90
13686;DHT22;6915;48.296;8.874;2022-12-11T01:31:15;-4.70;99.90
13686;DHT22;6915;48.296;8.874;2022-12-11T01:33:45;-4.70;99.90
13686;DHT22;6915;48.296;8.874;2022-12-11T01:36:16;-4.90;99.90
13686;DHT22;6915;48.296;8.874;2022-12-11T01:38:46;-4.80;99.90
13686;DHT22;6915;48.296;8.874;2022-12-11T01:41:16;-5.00;99.90
13686;DHT22;6915;48.296;8.874;2022-12-11T01:44:01;-5.00;99.90
13686;DHT22;6915;48.296;8.874;2022-12-11T01:46:34;-5.10;99.90
13686;DHT22;6915;48.296;8.874;2022-12-11T01:49:06;-5.20;99.90
13686;DHT22;6915;48.296;8.874;2022-12-11T01:51:39;-5.30;99.90
13686;DHT22;6915;48.296;8.874;2022-12-11T01:54:12;-5.30;99.90
13686;DHT22;6915;48.296;8.874;2022-12-11T01:56:45;-5.50;99.90
13686;DHT22;6915;48.296;8.874;2022-12-11T01:59:17;-5.50;99.90
13686;DHT22;6915;48.296;8.874;2022-12-11T02:01:52;-5.50;99.90
13686;DHT22;6915;48.296;8.874;2022-12-11T02:04:23;-5.50;99.90
13686;DHT22;6915;48.296;8.874;2022-12-11T02:06:52;-5.50;99.90
13686;DHT22;6915;48.296;8.874;2022-12-11T02:09:24;-5.50;99.90
13686;DHT22;6915;48.296;8.874;2022-12-11T02:11:59;-5.50;99.90
13686;DHT22;6915;48.296;8.874;2022-12-11T02:14:31;-5.50;99.90
13686;DHT22;6915;48.296;8.874;2022-12-11T02:17:07;-5.50;99.90
13686;DHT22;6915;48.296;8.874;2022-12-11T02:19:51;-5.50;99.90
13686;DHT22;6915;48.296;8.874;2022-12-11T02:22:32;-5.50;99.90
13686;DHT22;6915;48.296;8.874;2022-12-11T02:25:12;-5.50;99.90
13686;DHT22;6915;48.296;8.874;2022-12-11T02:27:47;-5.40;99.90
13686;DHT22;6915;48.296;8.874;2022-12-11T02:30:24;-5.40;99.90
13686;DHT22;6915;48.296;8.874;2022-12-11T02:32:56;-5.50;99.90
13686;DHT22;6915;48.296;8.874;2022-12-11T02:35:27;-5.60;99.90
13686;DHT22;6915;48.296;8.874;2022-12-11T02:38:00;-5.60;99.90
13686;DHT22;6915;48.296;8.874;2022-12-11T02:40:35;-5.70;99.90
13686;DHT22;6915;48.296;8.874;2022-12-11T02:43:09;-5.70;99.90
13686;DHT22;6915;48.296;8.874;2022-12-11T02:45:41;-5.70;99.90
13686;DHT22;6915;48.296;8.874;2022-12-11T02:48:12;-5.80;99.90
13686;DHT22;6915;48.296;8.874;2022-12-11T02:50:45;-5.70;99.90
13686;DHT22;6915;48.296;8.874;2022-12-11T02:53:17;-5.80;99.90
13686;DHT22;6915;48.296;8.874;2022-12-11T02:55:50;-6.10;99.90
13686;DHT22;6915;48.296;8.874;2022-12-11T02:58:23;-6.00;99.90
13686;DHT22;6915;48.296;8.874;2022-12-11T03:00:55;-6.10;99.90
13686;DHT22;6915;48.296;8.874;2022-12-11T03:03:24;-6.10;99.90
13686;DHT22;6915;48.296;8.874;2022-12-11T03:05:53;-6.00;99.90
13686;DHT22;6915;48.296;8.874;2022-12-11T03:08:23;-6.30;99.90
13686;DHT22;6915;48.296;8.874;2022-12-11T03:10:53;-6.40;99.90
13686;DHT22;6915;48.296;8.874;2022-12-11T03:13:22;-6.40;99.90
13686;DHT22;6915;48.296;8.874;2022-12-11T03:16:02;-6.40;99.90
13686;DHT22;6915;48.296;8.874;2022-12-11T03:18:38;-6.40;99.90
13686;DHT22;6915;48.296;8.874;2022-12-11T03:21:10;-6.60;99.90
13686;DHT22;6915;48.296;8.874;2022-12-11T03:23:46;-6.50;99.90
13686;DHT22;6915;48.296;8.874;2022-12-11T03:26:18;-6.60;99.90
13686;DHT22;6915;48.296;8.874;2022-12-11T03:28:52;-6.70;99.90
13686;DHT22;6915;48.296;8.874;2022-12-11T03:31:24;-6.70;99.90
13686;DHT22;6915;48.296;8.874;2022-12-11T03:33:55;-6.80;99.90
13686;DHT22;6915;48.296;8.874;2022-12-11T03:36:31;-6.90;99.90
13686;DHT22;6915;48.296;8.874;2022-12-11T03:39:04;-6.80;99.90
13686;DHT22;6915;48.296;8.874;2022-12-11T03:41:35;-7.00;99.90
13686;DHT22;6915;48.296;8.874;2022-12-11T03:44:06;-7.10;99.90
13686;DHT22;6915;48.296;8.874;2022-12-11T03:46:39;-7.20;99.90
13686;DHT22;6915;48.296;8.874;2022-12-11T03:49:12;-7.20;99.90
13686;DHT22;6915;48.296;8.874;2022-12-11T03:51:44;-7.20;99.90
13686;DHT22;6915;48.296;8.874;2022-12-11T03:54:14;-7.00;99.90
13686;DHT22;6915;48.296;8.874;2022-12-11T03:56:45;-7.20;99.90
13686;DHT22;6915;48.296;8.874;2022-12-11T03:59:16;-7.20;99.90
13686;DHT22;6915;48.296;8.874;2022-12-11T04:01:46;-7.10;99.90
13686;DHT22;6915;48.296;8.874;2022-12-11T04:04:16;-7.20;99.90
13686;DHT22;6915;48.296;8.874;2022-12-11T04:06:45;-7.00;99.90
13686;DHT22;6915;48.296;8.874;2022-12-11T04:09:15;-7.20;99.90
13686;DHT22;6915;48.296;8.874;2022-12-11T04:11:44;-7.30;99.90
13686;DHT22;6915;48.296;8.874;2022-12-11T04:14:14;-7.30;99.90
13686;DHT22;6915;48.296;8.874;2022-12-11T04:17:04;-7.40;99.90
13686;DHT22;6915;48.296;8.874;2022-12-11T04:19:33;-7.40;99.90
13686;DHT22;6915;48.296;8.874;2022-12-11T04:22:19;-7.40;99.90
13686;DHT22;6915;48.296;8.874;2022-12-11T04:25:08;-7.40;99.90
13686;DHT22;6915;48.296;8.874;2022-12-11T04:27:37;-7.30;99.90
13686;DHT22;6915;48.296;8.874;2022-12-11T04:30:21;-7.40;99.90
13686;DHT22;6915;48.296;8.874;2022-12-11T04:32:52;-7.40;99.90
13686;DHT22;6915;48.296;8.874;2022-12-11T04:35:22;-7.40;99.90
13686;DHT22;6915;48.296;8.874;2022-12-11T04:37:51;-7.50;99.90
13686;DHT22;6915;48.296;8.874;2022-12-11T04:40:21;-7.30;99.90
13686;DHT22;6915;48.296;8.874;2022-12-11T04:42:50;-7.40;99.90
13686;DHT22;6915;48.296;8.874;2022-12-11T04:45:19;-7.60;99.90
13686;DHT22;6915;48.296;8.874;2022-12-11T04:47:48;-7.60;99.90
13686;DHT22;6915;48.296;8.874;2022-12-11T04:50:19;-7.60;99.90
13686;DHT22;6915;48.296;8.874;2022-12-11T04:52:48;-7.50;99.90
13686;DHT22;6915;48.296;8.874;2022-12-11T04:55:17;-7.60;99.90
13686;DHT22;6915;48.296;8.874;2022-12-11T04:57:45;-7.70;99.90
13686;DHT22;6915;48.296;8.874;2022-12-11T05:00:13;-7.70;99.90
13686;DHT22;6915;48.296;8.874;2022-12-11T05:02:43;-7.80;99.90
13686;DHT22;6915;48.296;8.874;2022-12-11T05:05:12;-7.70;99.90
13686;DHT22;6915;48.296;8.874;2022-12-11T05:07:43;-7.70;99.90
13686;DHT22;6915;48.296;8.874;2022-12-11T05:10:12;-7.80;99.90
13686;DHT22;6915;48.296;8.874;2022-12-11T05:12:40;-7.80;99.90
13686;DHT22;6915;48.296;8.874;2022-12-11T05:15:10;-7.90;99.90
13686;DHT22;6915;48.296;8.874;2022-12-11T05:17:39;-8.00;99.90
13686;DHT22;6915;48.296;8.874;2022-12-11T05:20:09;-7.90;99.90
13686;DHT22;6915;48.296;8.874;2022-12-11T05:22:39;-7.80;99.90
13686;DHT22;6915;48.296;8.874;2022-12-11T05:25:10;-7.80;99.90
13686;DHT22;6915;48.296;8.874;2022-12-11T05:27:39;-7.80;99.90
13686;DHT22;6915;48.296;8.874;2022-12-11T05:30:07;-7.80;99.90
13686;DHT22;6915;48.296;8.874;2022-12-11T05:32:36;-7.80;99.90
13686;DHT22;6915;48.296;8.874;2022-12-11T05:35:06;-7.80;99.90
13686;DHT22;6915;48.296;8.874;2022-12-11T05:37:35;-7.90;99.90
13686;DHT22;6915;48.296;8.874;2022-12-11T05:40:06;-7.90;99.90
13686;DHT22;6915;48.296;8.874;2022-12-11T05:42:36;-7.80;99.90
13686;DHT22;6915;48.296;8.874;2022-12-11T05:45:04;-7.80;99.90
13686;DHT22;6915;48.296;8.874;2022-12-11T05:47:33;-7.90;99.90
13686;DHT22;6915;48.296;8.874;2022-12-11T05:50:03;-7.80;99.90
13686;DHT22;6915;48.296;8.874;2022-12-11T05:52:32;-8.00;99.90
13686;DHT22;6915;48.296;8.874;2022-12-11T05:55:01;-7.90;99.90
13686;DHT22;6915;48.296;8.874;2022-12-11T05:57:30;-7.80;99.90
13686;DHT22;6915;48.296;8.874;2022-12-11T06:00:00;-7.80;99.90
13686;DHT22;6915;48.296;8.874;2022-12-11T06:02:29;-7.90;99.90
13686;DHT22;6915;48.296;8.874;2022-12-11T06:04:58;-7.90;99.90
13686;DHT22;6915;48.296;8.874;2022-12-11T06:07:26;-7.90;99.90
13686;DHT22;6915;48.296;8.874;2022-12-11T06:09:55;-7.90;99.90
13686;DHT22;6915;48.296;8.874;2022-12-11T06:12:24;-7.90;99.90
13686;DHT22;6915;48.296;8.874;2022-12-11T06:14:53;-7.90;99.90
13686;DHT22;6915;48.296;8.874;2022-12-11T06:17:24;-7.90;99.90
13686;DHT22;6915;48.296;8.874;2022-12-11T06:19:52;-7.80;99.90
13686;DHT22;6915;48.296;8.874;2022-12-11T06:22:21;-7.80;99.90
13686;DHT22;6915;48.296;8.874;2022-12-11T06:24:50;-7.90;99.90
13686;DHT22;6915;48.296;8.874;2022-12-11T06:27:18;-8.10;99.90
13686;DHT22;6915;48.296;8.874;2022-12-11T06:29:47;-8.20;99.90
13686;DHT22;6915;48.296;8.874;2022-12-11T06:32:16;-8.20;99.90
13686;DHT22;6915;48.296;8.874;2022-12-11T06:34:46;-8.20;99.90
13686;DHT22;6915;48.296;8.874;2022-12-11T06:37:15;-8.10;99.90
13686;DHT22;6915;48.296;8.874;2022-12-11T06:39:44;-8.10;99.90
13686;DHT22;6915;48.296;8.874;2022-12-11T06:42:12;-8.10;99.90
13686;DHT22;6915;48.296;8.874;2022-12-11T06:44:44;-8.10;99.90
13686;DHT22;6915;48.296;8.874;2022-12-11T06:47:16;-7.90;99.90
13686;DHT22;6915;48.296;8.874;2022-12-11T06:49:46;-7.90;99.90
13686;DHT22;6915;48.296;8.874;2022-12-11T06:52:15;-7.90;99.90
13686;DHT22;6915;48.296;8.874;2022-12-11T06:54:43;-7.80;99.90
13686;DHT22;6915;48.296;8.874;2022-12-11T06:57:12;-7.70;99.90
13686;DHT22;6915;48.296;8.874;2022-12-11T06:59:41;-7.80;99.90
13686;DHT22;6915;48.296;8.874;2022-12-11T07:02:10;-7.90;99.90
13686;DHT22;6915;48.296;8.874;2022-12-11T07:04:41;-8.00;99.90
13686;DHT22;6915;48.296;8.874;2022-12-11T07:07:11;-8.00;99.90
13686;DHT22;6915;48.296;8.874;2022-12-11T07:09:41;-7.90;99.90
13686;DHT22;6915;48.296;8.874;2022-12-11T07:12:10;-8.00;99.90
13686;DHT22;6915;48.296;8.874;2022-12-11T07:14:38;-8.00;99.90
13686;DHT22;6915;48.296;8.874;2022-12-11T07:17:07;-8.00;99.90
13686;DHT22;6915;48.296;8.874;2022-12-11T07:19:35;-8.00;99.90
13686;DHT22;6915;48.296;8.874;2022-12-11T07:22:04;-7.90;99.90
13686;DHT22;6915;48.296;8.874;2022-12-11T07:24:34;-8.00;99.90
13686;DHT22;6915;48.296;8.874;2022-12-11T07:27:03;-8.20;99.90
13686;DHT22;6915;48.296;8.874;2022-12-11T07:29:32;-8.30;99.90
13686;DHT22;6915;48.296;8.874;2022-12-11T07:32:00;-8.20;99.90
13686;DHT22;6915;48.296;8.874;2022-12-11T07:34:29;-8.30;99.90
13686;DHT22;6915;48.296;8.874;2022-12-11T07:36:58;-8.30;99.90
13686;DHT22;6915;48.296;8.874;2022-12-11T07:39:27;-8.40;99.90
13686;DHT22;6915;48.296;8.874;2022-12-11T07:41:57;-8.40;99.90
13686;DHT22;6915;48.296;8.874;2022-12-11T07:44:26;-8.40;99.90
13686;DHT22;6915;48.296;8.874;2022-12-11T07:46:54;-8.40;99.90
13686;DHT22;6915;48.296;8.874;2022-12-11T07:49:23;-8.40;99.90
13686;DHT22;6915;48.296;8.874;2022-12-11T07:51:51;-8.30;99.90
13686;DHT22;6915;48.296;8.874;2022-12-11T07:54:20;-8.20;99.90
13686;DHT22;6915;48.296;8.874;2022-12-11T07:56:49;-8.20;99.90
13686;DHT22;6915;48.296;8.874;2022-12-11T07:59:19;-8.10;99.90
13686;DHT22;6915;48.296;8.874;2022-12-11T08:01:48;-8.00;99.90
13686;DHT22;6915;48.296;8.874;2022-12-11T08:04:17;-8.00;99.90
13686;DHT22;6915;48.296;8.874;2022-12-11T08:06:45;-7.90;99.90
13686;DHT22;6915;48.296;8.874;2022-12-11T08:09:14;-7.80;99.90
13686;DHT22;6915;48.296;8.874;2022-12-11T08:11:43;-7.80;99.90
13686;DHT22;6915;48.296;8.874;2022-12-11T08:14:11;-7.80;99.90
13686;DHT22;6915;48.296;8.874;2022-12-11T08:16:41;-7.70;99.90
13686;DHT22;6915;48.296;8.874;2022-12-11T08:19:09;-7.60;99.90
13686;DHT22;6915;48.296;8.874;2022-12-11T08:21:38;-7.60;99.90
13686;DHT22;6915;48.296;8.874;2022-12-11T08:24:08;-7.50;99.90
13686;DHT22;6915;48.296;8.874;2022-12-11T08:26:38;-7.50;99.90
13686;DHT22;6915;48.296;8.874;2022-12-11T08:29:06;-7.50;99.90
13686;DHT22;6915;48.296;8.874;2022-12-11T08:31:35;-7.50;99.90
13686;DHT22;6915;48.296;8.874;2022-12-11T08:34:05;-7.40;99.90
13686;DHT22;6915;48.296;8.874;2022-12-11T08:36:34;-7.40;99.90
13686;DHT22;6915;48.296;8.874;2022-12-11T08:39:02;-7.30;99.90
13686;DHT22;6915;48.296;8.874;2022-12-11T08:41:31;-7.30;99.90
13686;DHT22;6915;48.296;8.874;2022-12-11T08:44:00;-7.20;99.90
13686;DHT22;6915;48.296;8.874;2022-12-11T08:46:30;-7.10;99.90
13686;DHT22;6915;48.296;8.874;2022-12-11T08:49:02;-7.00;99.90
13686;DHT22;6915;48.296;8.874;2022-12-11T08:51:32;-6.90;99.90
13686;DHT22;6915;48.296;8.874;2022-12-11T08:54:01;-6.80;99.90
13686;DHT22;6915;48.296;8.874;2022-12-11T08:56:30;-6.70;99.90
13686;DHT22;6915;48.296;8.874;2022-12-11T08:59:01;-6.60;99.90
13686;DHT22;6915;48.296;8.874;2022-12-11T09:01:30;-6.50;99.90
13686;DHT22;6915;48.296;8.874;2022-12-11T09:03:59;-6.40;99.90
13686;DHT22;6915;48.296;8.874;2022-12-11T09:06:29;-6.30;99.90
13686;DHT22;6915;48.296;8.874;2022-12-11T09:09:00;-6.20;99.90
13686;DHT22;6915;48.296;8.874;2022-12-11T09:11:30;-6.10;99.90
13686;DHT22;6915;48.296;8.874;2022-12-11T09:13:59;-5.90;99.90
13686;DHT22;6915;48.296;8.874;2022-12-11T09:16:29;-5.80;99.90
13686;DHT22;6915;48.296;8.874;2022-12-11T09:18:59;-5.70;99.90
13686;DHT22;6915;48.296;8.874;2022-12-11T09:21:30;-5.60;99.90
13686;DHT22;6915;48.296;8.874;2022-12-11T09:24:01;-5.40;99.90
13686;DHT22;6915;48.296;8.874;2022-12-11T09:26:30;-5.40;99.90
13686;DHT22;6915;48.296;8.874;2022-12-11T09:29:00;-5.30;99.90
13686;DHT22;6915;48.296;8.874;2022-12-11T09:31:32;-5.30;99.90
13686;DHT22;6915;48.296;8.874;2022-12-11T09:34:03;-5.20;99.90
13686;DHT22;6915;48.296;8.874;2022-12-11T09:36:32;-5.00;99.90
13686;DHT22;6915;48.296;8.874;2022-12-11T09:39:04;-4.90;99.90
13686;DHT22;6915;48.296;8.874;2022-12-11T09:41:37;-4.90;99.90
13686;DHT22;6915;48.296;8.874;2022-12-11T09:44:23;-4.80;99.90
13686;DHT22;6915;48.296;8.874;2022-12-11T09:46:55;-4.70;99.90
13686;DHT22;6915;48.296;8.874;2022-12-11T09:49:26;-4.60;99.90
13686;DHT22;6915;48.296;8.874;2022-12-11T09:52:04;-4.60;99.90
13686;DHT22;6915;48.296;8.874;2022-12-11T09:54:43;-4.40;99.90
13686;DHT22;6915;48.296;8.874;2022-12-11T09:57:19;-4.30;99.90
13686;DHT22;6915;48.296;8.874;2022-12-11T10:00:05;-4.20;99.90
13686;DHT22;6915;48.296;8.874;2022-12-11T10:02:45;-4.10;99.90
13686;DHT22;6915;48.296;8.874;2022-12-11T10:05:23;-4.00;99.90
13686;DHT22;6915;48.296;8.874;2022-12-11T10:07:59;-3.90;99.90
13686;DHT22;6915;48.296;8.874;2022-12-11T10:10:37;-3.70;99.90
13686;DHT22;6915;48.296;8.874;2022-12-11T10:13:15;-3.70;99.90
13686;DHT22;6915;48.296;8.874;2022-12-11T10:15:53;-3.60;99.90
13686;DHT22;6915;48.296;8.874;2022-12-11T10:18:25;-3.50;99.90
13686;DHT22;6915;48.296;8.874;2022-12-11T10:20:55;-3.20;99.90
13686;DHT22;6915;48.296;8.874;2022-12-11T10:23:28;-3.20;99.90
13686;DHT22;6915;48.296;8.874;2022-12-11T10:26:08;-3.10;99.90
13686;DHT22;6915;48.296;8.874;2022-12-11T10:28:38;-2.80;99.90
13686;DHT22;6915;48.296;8.874;2022-12-11T10:31:12;-2.70;99.90
13686;DHT22;6915;48.296;8.874;2022-12-11T10:33:49;-2.50;99.90
13686;DHT22;6915;48.296;8.874;2022-12-11T10:36:25;-2.20;99.90
13686;DHT22;6915;48.296;8.874;2022-12-11T10:38:54;-2.30;99.90
13686;DHT22;6915;48.296;8.874;2022-12-11T10:41:29;-2.20;99.90
13686;DHT22;6915;48.296;8.874;2022-12-11T10:44:00;-2.10;99.90
13686;DHT22;6915;48.296;8.874;2022-12-11T10:46:41;-2.00;99.90
13686;DHT22;6915;48.296;8.874;2022-12-11T10:49:20;-1.90;99.90
13686;DHT22;6915;48.296;8.874;2022-12-11T10:51:49;-1.60;99.90
13686;DHT22;6915;48.296;8.874;2022-12-11T10:54:28;-1.70;99.90
13686;DHT22;6915;48.296;8.874;2022-12-11T10:56:59;-1.50;99.90
13686;DHT22;6915;48.296;8.874;2022-12-11T10:59:32;-1.50;99.90
13686;DHT22;6915;48.296;8.874;2022-12-11T11:02:02;-1.30;99.90
13686;DHT22;6915;48.296;8.874;2022-12-11T11:04:34;-1.20;99.90
13686;DHT22;6915;48.296;8.874;2022-12-11T11:07:09;-1.10;99.90
13686;DHT22;6915;48.296;8.874;2022-12-11T11:09:40;-1.00;99.90
13686;DHT22;6915;48.296;8.874;2022-12-11T11:12:22;-0.80;99.90
13686;DHT22;6915;48.296;8.874;2022-12-11T11:15:03;-0.70;99.90
13686;DHT22;6915;48.296;8.874;2022-12-11T11:17:39;-0.70;99.90
13686;DHT22;6915;48.296;8.874;2022-12-11T11:20:13;-0.70;99.90
13686;DHT22;6915;48.296;8.874;2022-12-11T11:22:46;-0.60;99.90
13686;DHT22;6915;48.296;8.874;2022-12-11T11:25:17;-0.60;99.90
13686;DHT22;6915;48.296;8.874;2022-12-11T11:27:50;-0.50;99.90
13686;DHT22;6915;48.296;8.874;2022-12-11T11:30:21;-0.40;99.90
13686;DHT22;6915;48.296;8.874;2022-12-11T11:32:53;-0.30;99.90
13686;DHT22;6915;48.296;8.874;2022-12-11T11:35:24;-0.30;99.90
13686;DHT22;6915;48.296;8.874;2022-12-11T11:38:03;-0.30;99.90
13686;DHT22;6915;48.296;8.874;2022-12-11T11:40:35;-0.20;99.90
13686;DHT22;6915;48.296;8.874;2022-12-11T11:43:12;-0.10;99.90
13686;DHT22;6915;48.296;8.874;2022-12-11T11:45:46;-0.10;99.90
13686;DHT22;6915;48.296;8.874;2022-12-11T11:48:27;-0.10;99.90
13686;DHT22;6915;48.296;8.874;2022-12-11T11:50:59;-0.10;99.90
13686;DHT22;6915;48.296;8.874;2022-12-11T11:53:33;0.00;99.90
13686;DHT22;6915;48.296;8.874;2022-12-11T11:56:16;0.10;99.90
13686;DHT22;6915;48.296;8.874;2022-12-11T11:58:54;0.20;99.90
13686;DHT22;6915;48.296;8.874;2022-12-11T12:01:26;0.20;99.90
13686;DHT22;6915;48.296;8.874;2022-12-11T12:03:54;0.20;99.90
13686;DHT22;6915;48.296;8.874;2022-12-11T12:06:37;0.20;99.90
13686;DHT22;6915;48.296;8.874;2022-12-11T12:09:15;0.20;99.90
13686;DHT22;6915;48.296;8.874;2022-12-11T12:11:50;0.30;99.90
13686;DHT22;6915;48.296;8.874;2022-12-11T12:14:24;0.20;99.90
13686;DHT22;6915;48.296;8.874;2022-12-11T12:17:03;0.30;99.90
13686;DHT22;6915;48.296;8.874;2022-12-11T12:19:41;0.40;99.90
13686;DHT22;6915;48.296;8.874;2022-12-11T12:22:25;0.40;99.90
13686;DHT22;6915;48.296;8.874;2022-12-11T12:25:02;0.50;99.90
13686;DHT22;6915;48.296;8.874;2022-12-11T12:27:39;0.40;99.90
13686;DHT22;6915;48.296;8.874;2022-12-11T12:30:16;0.40;99.90
13686;DHT22;6915;48.296;8.874;2022-12-11T12:32:52;0.40;99.90
13686;DHT22;6915;48.296;8.874;2022-12-11T12:35:31;0.60;99.90
13686;DHT22;6915;48.296;8.874;2022-12-11T12:38:06;0.50;99.90
13686;DHT22;6915;48.296;8.874;2022-12-11T12:40:41;0.50;99.90
13686;DHT22;6915;48.296;8.874;2022-12-11T12:43:32;0.60;99.90
13686;DHT22;6915;48.296;8.874;2022-12-11T12:46:13;0.60;99.90
13686;DHT22;6915;48.296;8.874;2022-12-11T12:48:46;0.70;99.90
13686;DHT22;6915;48.296;8.874;2022-12-11T12:51:17;0.70;99.90
13686;DHT22;6915;48.296;8.874;2022-12-11T12:53:57;0.70;99.90
13686;DHT22;6915;48.296;8.874;2022-12-11T12:56:28;0.70;99.90
13686;DHT22;6915;48.296;8.874;2022-12-11T12:58:59;0.60;99.90
13686;DHT22;6915;48.296;8.874;2022-12-11T13:01:31;0.60;99.90
13686;DHT22;6915;48.296;8.874;2022-12-11T13:04:02;0.70;99.90
13686;DHT22;6915;48.296;8.874;2022-12-11T13:06:33;0.60;99.90
13686;DHT22;6915;48.296;8.874;2022-12-11T13:09:14;0.70;99.90
13686;DHT22;6915;48.296;8.874;2022-12-11T13:11:44;0.70;99.90
13686;DHT22;6915;48.296;8.874;2022-12-11T13:14:24;0.80;99.90
13686;DHT22;6915;48.296;8.874;2022-12-11T13:17:05;1.00;99.90
13686;DHT22;6915;48.296;8.874;2022-12-11T13:19:36;0.90;99.90
13686;DHT22;6915;48.296;8.874;2022-12-11T13:22:19;1.00;99.90
13686;DHT22;6915;48.296;8.874;2022-12-11T13:24:56;1.00;99.90
13686;DHT22;6915;48.296;8.874;2022-12-11T13:27:35;0.90;99.90
13686;DHT22;6915;48.296;8.874;2022-12-11T13:30:05;1.00;99.90
13686;DHT22;6915;48.296;8.874;2022-12-11T13:32:36;0.90;99.90
13686;DHT22;6915;48.296;8.874;2022-12-11T13:35:06;0.90;99.90
13686;DHT22;6915;48.296;8.874;2022-12-11T13:37:43;0.90;99.90
13686;DHT22;6915;48.296;8.874;2022-12-11T13:40:19;1.00;99.90
13686;DHT22;6915;48.296;8.874;2022-12-11T13:42:51;1.00;99.90
13686;DHT22;6915;48.296;8.874;2022-12-11T13:45:23;1.00;99.90
13686;DHT22;6915;48.296;8.874;2022-12-11T13:47:56;1.20;99.90
13686;DHT22;6915;48.296;8.874;2022-12-11T13:50:28;1.30;99.90
13686;DHT22;6915;48.296;8.874;2022-12-11T13:52:59;1.40;99.90
13686;DHT22;6915;48.296;8.874;2022-12-11T13:55:30;1.40;99.90
13686;DHT22;6915;48.296;8.874;2022-12-11T13:57:59;1.20;99.90
13686;DHT22;6915;48.296;8.874;2022-12-11T14:00:30;1.20;99.90
13686;DHT22;6915;48.296;8.874;2022-12-11T14:03:03;1.10;99.90
13686;DHT22;6915;48.296;8.874;2022-12-11T14:05:34;0.80;99.90
13686;DHT22;6915;48.296;8.874;2022-12-11T14:08:08;0.60;99.90
13686;DHT22;6915;48.296;8.874;2022-12-11T14:10:37;0.40;99.90
13686;DHT22;6915;48.296;8.874;2022-12-11T14:13:18;0.30;99.90
13686;DHT22;6915;48.296;8.874;2022-12-11T14:15:49;0.30;99.90
13686;DHT22;6915;48.296;8.874;2022-12-11T14:18:22;0.20;99.90
13686;DHT22;6915;48.296;8.874;2022-12-11T14:20:55;0.10;99.90
13686;DHT22;6915;48.296;8.874;2022-12-11T14:23:27;0.10;99.90
13686;DHT22;6915;48.296;8.874;2022-12-11T14:25:57;0.00;99.90
13686;DHT22;6915;48.296;8.874;2022-12-11T14:28:28;-0.20;99.90
13686;DHT22;6915;48.296;8.874;2022-12-11T14:30:58;-0.20;99.90
13686;DHT22;6915;48.296;8.874;2022-12-11T14:33:34;-0.20;99.90
13686;DHT22;6915;48.296;8.874;2022-12-11T14:36:05;-0.40;99.90
13686;DHT22;6915;48.296;8.874;2022-12-11T14:38:36;-0.50;99.90
13686;DHT22;6915;48.296;8.874;2022-12-11T14:41:09;-0.50;99.90
13686;DHT22;6915;48.296;8.874;2022-12-11T14:43:44;-0.60;99.90
13686;DHT22;6915;48.296;8.874;2022-12-11T14:46:19;-0.60;99.90
13686;DHT22;6915;48.296;8.874;2022-12-11T14:48:54;-0.50;99.90
13686;DHT22;6915;48.296;8.874;2022-12-11T14:51:24;-0.70;99.90
13686;DHT22;6915;48.296;8.874;2022-12-11T14:53:56;-0.70;99.90
13686;DHT22;6915;48.296;8.874;2022-12-11T14:56:26;-0.60;99.90
13686;DHT22;6915;48.296;8.874;2022-12-11T14:58:58;-0.90;99.90
13686;DHT22;6915;48.296;8.874;2022-12-11T15:01:32;-0.90;99.90
13686;DHT22;6915;48.296;8.874;2022-12-11T15:04:18;-1.00;99.90
13686;DHT22;6915;48.296;8.874;2022-12-11T15:06:50;-1.00;99.90
13686;DHT22;6915;48.296;8.874;2022-12-11T15:09:24;-1.00;99.90
13686;DHT22;6915;48.296;8.874;2022-12-11T15:11:54;-0.90;99.90
13686;DHT22;6915;48.296;8.874;2022-12-11T15:14:25;-1.10;99.90
13686;DHT22;6915;48.296;8.874;2022-12-11T15:16:55;-1.10;99.90
13686;DHT22;6915;48.296;8.874;2022-12-11T15:19:29;-1.10;99.90
13686;DHT22;6915;48.296;8.874;2022-12-11T15:22:02;-1.10;99.90
13686;DHT22;6915;48.296;8.874;2022-12-11T15:24:33;-1.00;99.90
13686;DHT22;6915;48.296;8.874;2022-12-11T15:27:03;-1.10;99.90
13686;DHT22;6915;48.296;8.874;2022-12-11T15:29:35;-1.10;99.90
13686;DHT22;6915;48.296;8.874;2022-12-11T15:32:15;-1.20;99.90
13686;DHT22;6915;48.296;8.874;2022-12-11T15:34:49;-1.30;99.90
13686;DHT22;6915;48.296;8.874;2022-12-11T15:37:18;-1.30;99.90
13686;DHT22;6915;48.296;8.874;2022-12-11T15:39:46;-1.30;99.90
13686;DHT22;6915;48.296;8.874;2022-12-11T15:42:17;-1.40;99.90
13686;DHT22;6915;48.296;8.874;2022-12-11T15:44:48;-1.30;99.90
13686;DHT22;6915;48.296;8.874;2022-12-11T15:47:19;-1.40;99.90
13686;DHT22;6915;48.296;8.874;2022-12-11T15:49:50;-1.40;99.90
13686;DHT22;6915;48.296;8.874;2022-12-11T15:52:21;-1.40;99.90
13686;DHT22;6915;48.296;8.874;2022-12-11T15:54:49;-1.50;99.90
13686;DHT22;6915;48.296;8.874;2022-12-11T15:57:21;-1.50;99.90
13686;DHT22;6915;48.296;8.874;2022-12-11T15:59:52;-1.50;99.90
13686;DHT22;6915;48.296;8.874;2022-12-11T16:02:21;-1.50;99.90
13686;DHT22;6915;48.296;8.874;2022-12-11T16:04:54;-1.50;99.90
13686;DHT22;6915;48.296;8.874;2022-12-11T16:07:24;-1.50;99.90
13686;DHT22;6915;48.296;8.874;2022-12-11T16:09:54;-1.60;99.90
13686;DHT22;6915;48.296;8.874;2022-12-11T16:12:23;-1.50;99.90
13686;DHT22;6915;48.296;8.874;2022-12-11T16:14:52;-1.50;99.90
13686;DHT22;6915;48.296;8.874;2022-12-11T16:17:20;-1.50;99.90